createdAt,value
2023-05-22T00:01:06.598Z,78.35
2023-05-22T00:03:33.344Z,78.23
2023-05-22T00:06:00.226Z,78.54
2023-05-22T00:08:29.622Z,78.65
2023-05-22T00:10:56.689Z,78.41
2023-05-22T00:13:23.175Z,78.31
2023-05-22T00:15:49.658Z,78.61
2023-05-22T00:18:16.244Z,78.36
2023-05-22T00:20:42.753Z,78.25
2023-05-22T00:23:10.232Z,78.36
2023-05-22T00:25:37.442Z,78.43
2023-05-22T00:28:04.736Z,78.66
2023-05-22T00:30:31.805Z,78.71
2023-05-22T00:32:58.347Z,78.80
2023-05-22T00:35:25.236Z,78.69
2023-05-22T00:37:51.770Z,78.24
2023-05-22T00:40:18.771Z,78.07
2023-05-22T00:42:45.333Z,78.09
2023-05-22T00:45:13.334Z,78.06
2023-05-22T00:47:40.517Z,77.82
2023-05-22T00:50:10.045Z,77.77
2023-05-22T00:52:40.396Z,78.07
2023-05-22T00:55:08.788Z,78.27
2023-05-22T00:57:37.492Z,78.78
2023-05-22T01:00:08.851Z,79.09
2023-05-22T01:02:37.129Z,79.25
2023-05-22T01:05:06.837Z,79.09
2023-05-22T01:07:37.709Z,79.43
2023-05-22T01:10:06.098Z,79.31
2023-05-22T01:13:04.664Z,79.30
2023-05-22T01:15:48.245Z,79.07
2023-05-22T01:18:31.130Z,79.87
2023-05-22T01:21:12.364Z,79.53
2023-05-22T01:24:00.141Z,80.14
2023-05-22T01:26:41.498Z,79.79
2023-05-22T01:29:35.963Z,79.48
2023-05-22T01:32:04.246Z,79.47
2023-05-22T01:34:34.113Z,79.64
2023-05-22T01:37:01.844Z,79.58
2023-05-22T01:39:29.874Z,80.00
2023-05-22T01:41:57.012Z,80.06
2023-05-22T01:44:23.669Z,79.90
2023-05-22T01:46:50.142Z,79.95
2023-05-22T01:49:16.796Z,79.70
2023-05-22T01:51:53.596Z,80.20
2023-05-22T01:54:37.042Z,79.79
2023-05-22T01:57:23.000Z,79.91
2023-05-22T01:59:56.221Z,79.75
2023-05-22T02:02:25.998Z,79.80
2023-05-22T02:04:58.832Z,79.85
2023-05-22T02:07:25.958Z,80.10
2023-05-22T02:09:55.644Z,80.34
2023-05-22T02:12:23.992Z,80.02
2023-05-22T02:14:51.242Z,80.07
2023-05-22T02:17:18.212Z,79.92
2023-05-22T02:19:45.225Z,79.86
2023-05-22T02:22:14.946Z,80.09
2023-05-22T02:24:46.760Z,79.97
2023-05-22T02:27:14.807Z,80.12
2023-05-22T02:29:41.302Z,80.18
2023-05-22T02:32:08.146Z,80.11
2023-05-22T02:34:35.052Z,80.00
2023-05-22T02:37:04.536Z,80.69
2023-05-22T02:39:31.157Z,80.84
2023-05-22T02:41:57.618Z,80.87
2023-05-22T02:44:24.203Z,81.05
2023-05-22T02:46:50.820Z,80.65
2023-05-22T02:49:18.209Z,80.57
2023-05-22T02:51:47.597Z,80.70
2023-05-22T02:54:15.579Z,80.42
2023-05-22T02:56:45.518Z,80.14
2023-05-22T02:59:12.009Z,80.60
2023-05-22T03:01:41.373Z,80.44
2023-05-22T03:04:09.250Z,80.55
2023-05-22T03:06:37.117Z,80.80
2023-05-22T03:09:04.312Z,80.83
2023-05-22T03:11:31.830Z,80.76
2023-05-22T03:13:58.394Z,81.01
2023-05-22T03:16:25.019Z,81.18
2023-05-22T03:19:07.915Z,81.04
2023-05-22T03:21:34.799Z,81.06
2023-05-22T03:24:01.317Z,81.08
2023-05-22T03:26:30.575Z,80.80
2023-05-22T03:28:58.268Z,80.51
2023-05-22T03:31:27.250Z,80.23
2023-05-22T03:34:13.064Z,80.11
2023-05-22T03:36:41.328Z,80.08
2023-05-22T03:39:08.002Z,79.17
2023-05-22T03:41:39.522Z,78.65
2023-05-22T03:44:07.228Z,78.51
2023-05-22T03:46:33.789Z,78.24
2023-05-22T03:49:00.349Z,78.90
2023-05-22T03:51:26.830Z,78.56
2023-05-22T03:53:53.659Z,78.34
2023-05-22T03:56:21.062Z,78.58
2023-05-22T03:58:48.644Z,78.79
2023-05-22T04:01:16.897Z,79.04
2023-05-22T04:03:44.026Z,79.28
2023-05-22T04:06:10.908Z,79.79
2023-05-22T04:08:37.439Z,79.76
2023-05-22T04:11:05.357Z,79.85
2023-05-22T04:13:33.030Z,79.93
2023-05-22T04:16:01.907Z,79.47
2023-05-22T04:18:28.574Z,79.42
2023-05-22T04:20:57.449Z,79.57
2023-05-22T04:23:24.005Z,79.80
2023-05-22T04:25:50.672Z,79.53
2023-05-22T04:28:22.300Z,79.86
2023-05-22T04:30:49.314Z,79.55
2023-05-22T04:33:18.118Z,79.42
2023-05-22T04:35:44.717Z,79.21
2023-05-22T04:38:11.216Z,79.38
2023-05-22T04:40:38.090Z,79.27
2023-05-22T04:43:05.022Z,79.49
2023-05-22T04:45:32.857Z,79.19
2023-05-22T04:48:02.428Z,79.21
2023-05-22T04:50:32.598Z,78.98
2023-05-22T04:53:04.093Z,78.63
2023-05-22T04:55:33.961Z,78.68
2023-05-22T04:58:00.550Z,78.54
2023-05-22T05:00:28.753Z,78.71
2023-05-22T05:02:55.575Z,78.92
2023-05-22T05:05:22.147Z,78.94
2023-05-22T05:07:50.329Z,78.96
2023-05-22T05:10:18.157Z,78.90
2023-05-22T05:12:44.796Z,79.16
2023-05-22T05:15:11.730Z,79.35
2023-05-22T05:17:38.419Z,78.80
2023-05-22T05:20:07.222Z,79.04
2023-05-22T05:22:33.792Z,78.97
2023-05-22T05:25:01.897Z,78.98
2023-05-22T05:27:28.860Z,78.61
2023-05-22T05:29:56.159Z,78.59
2023-05-22T05:32:27.671Z,78.35
2023-05-22T05:35:02.808Z,78.65
2023-05-22T05:37:42.136Z,78.75
2023-05-22T05:40:09.742Z,78.72
2023-05-22T05:42:40.303Z,78.78
2023-05-22T05:45:09.810Z,78.49
2023-05-22T05:47:36.416Z,78.54
2023-05-22T05:50:03.328Z,78.37
2023-05-22T05:52:32.726Z,78.38
2023-05-22T05:55:02.322Z,78.06
2023-05-22T05:57:29.884Z,78.19
2023-05-22T05:59:57.014Z,78.30
2023-05-22T06:02:52.848Z,78.45
2023-05-22T06:05:30.400Z,78.38
2023-05-22T06:08:09.770Z,78.12
2023-05-22T06:10:36.322Z,78.79
2023-05-22T06:13:14.726Z,78.93
2023-05-22T06:15:41.306Z,78.18
2023-05-22T06:18:07.908Z,77.47
2023-05-22T06:20:36.423Z,77.72
2023-05-22T06:23:03.036Z,77.79
2023-05-22T06:25:30.068Z,78.05
2023-05-22T06:27:57.581Z,78.16
2023-05-22T06:30:38.828Z,78.35
2023-05-22T06:33:08.997Z,78.55
2023-05-22T06:35:35.656Z,78.89
2023-05-22T06:38:02.759Z,79.03
2023-05-22T06:40:29.623Z,79.22
2023-05-22T06:43:02.048Z,78.62
2023-05-22T06:45:47.226Z,78.45
2023-05-22T06:48:22.486Z,78.22
2023-05-22T06:50:58.520Z,78.08
2023-05-22T06:53:26.186Z,77.85
2023-05-22T06:55:52.695Z,77.50
2023-05-22T06:58:28.613Z,77.32
2023-05-22T07:00:55.650Z,76.89
2023-05-22T07:03:30.220Z,77.29
2023-05-22T07:06:29.105Z,77.98
2023-05-22T07:08:56.090Z,78.68
2023-05-22T07:11:22.618Z,78.91
2023-05-22T07:13:49.140Z,78.88
2023-05-22T07:16:15.696Z,79.03
2023-05-22T07:18:42.667Z,78.88
2023-05-22T07:21:09.195Z,79.14
2023-05-22T07:23:35.689Z,79.15
2023-05-22T07:26:02.204Z,79.01
2023-05-22T07:28:33.857Z,79.10
2023-05-22T07:31:06.706Z,78.95
2023-05-22T07:33:33.200Z,78.94
2023-05-22T07:35:59.897Z,78.83
2023-05-22T07:38:26.686Z,78.93
2023-05-22T07:40:59.752Z,78.90
2023-05-22T07:43:28.180Z,78.96
2023-05-22T07:45:55.988Z,78.58
2023-05-22T07:48:25.632Z,78.87
2023-05-22T07:50:52.138Z,79.04
2023-05-22T07:53:18.716Z,78.33
2023-05-22T07:55:49.040Z,78.24
2023-05-22T07:58:15.610Z,77.69
2023-05-22T08:00:44.164Z,77.04
2023-05-22T08:03:10.932Z,75.97
2023-05-22T08:05:37.644Z,73.58
2023-05-22T08:08:04.751Z,72.11
2023-05-22T08:10:46.476Z,70.24
2023-05-22T08:13:15.648Z,69.44
2023-05-22T08:15:42.364Z,68.56
2023-05-22T08:18:08.891Z,66.45
2023-05-22T08:20:35.870Z,65.46
2023-05-22T08:23:02.354Z,65.21
2023-05-22T08:25:28.915Z,62.71
2023-05-22T08:27:55.600Z,62.23
2023-05-22T08:30:22.100Z,61.63
2023-05-22T08:32:48.626Z,62.52
2023-05-22T08:35:15.264Z,61.91
2023-05-22T08:37:41.760Z,61.52
2023-05-22T08:40:14.554Z,61.09
2023-05-22T08:42:42.518Z,62.22
2023-05-22T08:45:09.788Z,61.82
2023-05-22T08:47:37.440Z,61.10
2023-05-22T08:50:04.591Z,58.95
2023-05-22T08:52:46.080Z,59.47
2023-05-22T08:55:12.843Z,59.70
2023-05-22T08:57:40.066Z,58.18
2023-05-22T09:00:07.911Z,58.33
2023-05-22T09:02:34.609Z,58.25
2023-05-22T09:05:02.059Z,58.34
2023-05-22T09:07:31.700Z,57.10
2023-05-22T09:09:58.175Z,56.13
2023-05-22T09:12:26.246Z,55.87
2023-05-22T09:14:54.684Z,55.40
2023-05-22T09:17:21.857Z,55.93
2023-05-22T09:19:48.402Z,56.42
2023-05-22T09:22:14.847Z,56.18
2023-05-22T09:24:43.519Z,56.59
2023-05-22T09:27:11.322Z,56.16
2023-05-22T09:29:56.854Z,57.19
2023-05-22T09:32:23.824Z,54.98
2023-05-22T09:34:50.957Z,55.32
2023-05-22T09:37:17.991Z,55.69
2023-05-22T09:39:46.122Z,56.46
2023-05-22T09:42:15.582Z,55.23
2023-05-22T09:44:44.870Z,54.91
2023-05-22T09:47:11.526Z,54.76
2023-05-22T09:49:42.463Z,54.13
2023-05-22T09:52:12.327Z,53.58
2023-05-22T09:54:55.157Z,52.99
2023-05-22T09:57:24.073Z,53.31
2023-05-22T09:59:58.138Z,53.34
2023-05-22T10:02:26.621Z,51.88
2023-05-22T10:04:54.710Z,53.00
2023-05-22T10:07:30.067Z,51.76
2023-05-22T10:10:02.172Z,52.27
2023-05-22T10:12:34.193Z,51.31
2023-05-22T10:15:02.672Z,50.77
2023-05-22T10:17:29.749Z,52.36
2023-05-22T10:19:57.552Z,52.86
2023-05-22T10:22:26.496Z,50.72
2023-05-22T10:24:54.272Z,51.84
2023-05-22T10:27:20.720Z,52.02
2023-05-22T10:30:13.911Z,53.38
2023-05-22T10:33:18.048Z,57.06
2023-05-22T10:35:48.817Z,58.66
2023-05-22T10:38:31.619Z,61.82
2023-05-22T10:40:59.145Z,60.54
2023-05-22T10:43:31.765Z,57.67
2023-05-22T10:46:03.211Z,60.28
2023-05-22T10:48:36.975Z,63.99
2023-05-22T10:51:04.476Z,63.06
2023-05-22T10:53:32.855Z,60.75
2023-05-22T10:56:08.678Z,61.09
2023-05-22T10:58:37.338Z,59.66
2023-05-22T11:01:21.154Z,59.69
2023-05-22T11:04:00.869Z,59.60
2023-05-22T11:07:02.164Z,64.34
2023-05-22T11:09:45.916Z,65.60
2023-05-22T11:12:16.991Z,65.64
2023-05-22T11:14:51.812Z,63.36
2023-05-22T11:17:22.974Z,64.17
2023-05-22T11:20:08.156Z,65.09
2023-05-22T11:22:36.957Z,65.25
2023-05-22T11:25:08.148Z,67.74
2023-05-22T11:27:35.462Z,67.26
2023-05-22T11:30:02.285Z,68.32
2023-05-22T11:32:29.194Z,69.16
2023-05-22T11:34:57.181Z,69.35
2023-05-22T11:37:24.127Z,68.97
2023-05-22T11:39:58.101Z,69.35
2023-05-22T11:42:25.061Z,68.80
2023-05-22T11:44:51.974Z,68.98
2023-05-22T11:47:18.446Z,68.75
2023-05-22T11:49:45.060Z,68.32
2023-05-22T11:52:11.798Z,67.64
2023-05-22T11:54:39.082Z,66.89
2023-05-22T11:57:09.174Z,67.36
2023-05-22T11:59:36.123Z,69.80
2023-05-22T12:02:02.672Z,69.02
2023-05-22T12:04:29.119Z,65.48
2023-05-22T12:06:56.087Z,68.11
2023-05-22T12:09:23.266Z,61.42
2023-05-22T12:11:50.426Z,63.61
2023-05-22T12:14:16.986Z,59.51
2023-05-22T12:16:44.622Z,61.21
2023-05-22T12:19:12.532Z,56.47
2023-05-22T12:21:40.891Z,57.01
2023-05-22T12:24:08.333Z,53.42
2023-05-22T12:26:35.158Z,54.34
2023-05-22T12:29:02.726Z,49.79
2023-05-22T12:31:35.778Z,50.40
2023-05-22T12:34:06.791Z,51.57
2023-05-22T12:36:34.818Z,50.55
2023-05-22T12:39:01.319Z,52.74
2023-05-22T12:41:27.789Z,52.06
2023-05-22T12:43:54.375Z,50.74
2023-05-22T12:46:21.015Z,51.55
2023-05-22T12:48:47.549Z,48.57
2023-05-22T12:51:14.233Z,48.95
2023-05-22T12:53:40.846Z,48.30
2023-05-22T12:56:07.305Z,48.93
2023-05-22T12:58:33.995Z,44.74
2023-05-22T13:01:00.476Z,40.46
2023-05-22T13:03:26.967Z,34.40
2023-05-22T13:05:53.455Z,33.71
2023-05-22T13:08:24.402Z,32.47
2023-05-22T13:10:53.359Z,30.16
2023-05-22T13:13:19.809Z,30.46
2023-05-22T13:15:46.388Z,31.51
2023-05-22T13:18:12.933Z,33.15
2023-05-22T13:20:39.454Z,35.24
2023-05-22T13:23:07.839Z,38.11
2023-05-22T13:25:34.614Z,37.81
2023-05-22T13:28:01.952Z,36.37
2023-05-22T13:30:28.650Z,37.72
2023-05-22T13:32:55.468Z,40.34
2023-05-22T13:35:22.063Z,38.84
2023-05-22T13:37:48.582Z,41.28
2023-05-22T13:40:15.979Z,40.77
2023-05-22T13:42:42.844Z,41.75
2023-05-22T13:45:10.486Z,42.10
2023-05-22T13:47:37.176Z,42.94
2023-05-22T13:50:05.440Z,43.18
2023-05-22T13:52:31.981Z,43.42
2023-05-22T13:54:58.445Z,42.83
2023-05-22T13:57:24.933Z,44.11
2023-05-22T13:59:52.134Z,45.07
2023-05-22T14:02:20.674Z,45.28
2023-05-22T14:04:48.628Z,44.27
2023-05-22T14:07:15.899Z,46.44
2023-05-22T14:09:42.369Z,46.89
2023-05-22T14:12:08.949Z,47.05
2023-05-22T14:14:35.474Z,47.80
2023-05-22T14:17:02.112Z,46.35
2023-05-22T14:19:28.778Z,47.55
2023-05-22T14:21:55.281Z,47.48
2023-05-22T14:24:21.804Z,47.10
2023-05-22T14:26:48.299Z,48.11
2023-05-22T14:29:15.041Z,49.37
2023-05-22T14:31:48.429Z,50.14
2023-05-22T14:34:17.492Z,50.66
2023-05-22T14:36:44.496Z,51.28
2023-05-22T14:39:11.138Z,51.13
2023-05-22T14:41:37.632Z,51.34
2023-05-22T14:44:04.218Z,52.18
2023-05-22T14:46:31.506Z,51.71
2023-05-22T14:48:58.055Z,52.21
2023-05-22T14:51:24.508Z,53.02
2023-05-22T14:53:51.045Z,52.72
2023-05-22T14:56:17.555Z,54.20
2023-05-22T14:58:44.062Z,54.33
2023-05-22T15:01:10.537Z,53.47
2023-05-22T15:03:37.032Z,53.79
2023-05-22T15:06:03.689Z,53.84
2023-05-22T15:08:30.155Z,53.90
2023-05-22T15:10:56.721Z,54.13
2023-05-22T15:13:23.218Z,54.12
2023-05-22T15:15:49.673Z,53.78
2023-05-22T15:18:16.413Z,53.93
2023-05-22T15:20:42.907Z,53.72
2023-05-22T15:23:09.364Z,53.58
2023-05-22T15:25:36.626Z,53.30
2023-05-22T15:28:06.326Z,52.90
2023-05-22T15:30:36.391Z,53.33
2023-05-22T15:33:03.634Z,52.44
2023-05-22T15:35:30.995Z,52.33
2023-05-22T15:38:00.598Z,52.09
2023-05-22T15:40:27.140Z,51.88
2023-05-22T15:42:54.105Z,52.58
2023-05-22T15:45:21.274Z,51.37
2023-05-22T15:47:47.922Z,50.97
2023-05-22T15:50:14.520Z,50.83
2023-05-22T15:52:41.107Z,49.24
2023-05-22T15:55:07.955Z,50.73
2023-05-22T15:57:34.581Z,50.08
2023-05-22T16:00:01.050Z,48.80
2023-05-22T16:02:27.599Z,50.22
2023-05-22T16:04:54.178Z,50.79
2023-05-22T16:07:20.730Z,49.11
2023-05-22T16:09:47.173Z,49.22
2023-05-22T16:12:13.708Z,49.96
2023-05-22T16:14:40.507Z,49.96
2023-05-22T16:17:07.084Z,49.45
2023-05-22T16:19:33.775Z,49.42
2023-05-22T16:22:00.343Z,49.98
2023-05-22T16:24:26.894Z,50.45
2023-05-22T16:26:53.416Z,50.30
2023-05-22T16:29:23.113Z,50.72
2023-05-22T16:31:49.786Z,51.63
2023-05-22T16:34:16.623Z,52.09
2023-05-22T16:36:43.185Z,51.47
2023-05-22T16:39:10.002Z,52.09
2023-05-22T16:41:39.627Z,51.15
2023-05-22T16:44:06.134Z,51.74
2023-05-22T16:46:33.057Z,51.57
2023-05-22T16:48:59.579Z,53.75
2023-05-22T16:51:26.043Z,53.31
2023-05-22T16:53:52.549Z,52.92
2023-05-22T16:56:20.708Z,53.25
2023-05-22T16:58:47.610Z,52.65
2023-05-22T17:01:14.287Z,52.79
2023-05-22T17:03:40.891Z,54.56
2023-05-22T17:06:08.833Z,56.29
2023-05-22T17:08:35.319Z,57.05
2023-05-22T17:11:01.790Z,55.75
2023-05-22T17:13:28.285Z,56.60
2023-05-22T17:15:54.856Z,57.36
2023-05-22T17:18:21.384Z,55.56
2023-05-22T17:20:53.918Z,54.79
2023-05-22T17:23:20.457Z,54.46
2023-05-22T17:25:47.043Z,53.15
2023-05-22T17:28:14.836Z,53.09
2023-05-22T17:30:42.649Z,51.98
2023-05-22T17:33:09.644Z,51.93
2023-05-22T17:35:36.138Z,52.09
2023-05-22T17:38:02.690Z,54.39
2023-05-22T17:40:40.485Z,57.00
2023-05-22T17:43:10.085Z,56.78
2023-05-22T17:45:36.542Z,57.14
2023-05-22T17:48:03.531Z,57.87
2023-05-22T17:50:30.051Z,56.37
2023-05-22T17:52:56.505Z,56.53
2023-05-22T17:55:23.104Z,56.77
2023-05-22T17:57:49.782Z,54.72
2023-05-22T18:00:16.861Z,54.54
2023-05-22T18:02:44.244Z,54.46
2023-05-22T18:05:10.831Z,53.42
2023-05-22T18:07:37.436Z,53.00
2023-05-22T18:10:05.167Z,52.83
2023-05-22T18:12:32.415Z,52.65
2023-05-22T18:14:59.294Z,52.43
2023-05-22T18:17:26.423Z,53.24
2023-05-22T18:19:52.953Z,53.38
2023-05-22T18:22:19.469Z,54.00
2023-05-22T18:24:45.938Z,53.42
2023-05-22T18:27:12.400Z,54.06
2023-05-22T18:29:40.040Z,54.76
2023-05-22T18:32:09.329Z,55.28
2023-05-22T18:34:37.606Z,55.38
2023-05-22T18:37:04.449Z,55.85
2023-05-22T18:39:31.052Z,56.29
2023-05-22T18:41:58.458Z,56.33
2023-05-22T18:44:25.008Z,57.28
2023-05-22T18:46:51.499Z,58.24
2023-05-22T18:49:17.985Z,57.56
2023-05-22T18:51:44.469Z,58.05
2023-05-22T18:54:10.989Z,58.33
2023-05-22T18:56:38.637Z,59.21
2023-05-22T18:59:05.211Z,59.08
2023-05-22T19:01:31.731Z,59.77
2023-05-22T19:03:58.506Z,60.84
2023-05-22T19:06:26.120Z,60.94
2023-05-22T19:08:52.881Z,61.00
2023-05-22T19:11:19.420Z,61.61
2023-05-22T19:13:46.077Z,62.04
2023-05-22T19:16:13.738Z,62.46
2023-05-22T19:18:40.304Z,63.41
2023-05-22T19:21:06.767Z,63.67
2023-05-22T19:23:33.369Z,63.83
2023-05-22T19:26:00.582Z,63.89
2023-05-22T19:28:27.301Z,63.87
2023-05-22T19:30:57.320Z,64.69
2023-05-22T19:33:26.052Z,65.44
2023-05-22T19:35:53.070Z,65.60
2023-05-22T19:38:19.743Z,65.90
2023-05-22T19:40:46.403Z,66.33
2023-05-22T19:43:13.012Z,66.72
2023-05-22T19:45:39.570Z,67.25
2023-05-22T19:48:06.148Z,67.49
2023-05-22T19:50:33.283Z,67.44
2023-05-22T19:52:59.749Z,67.10
2023-05-22T19:55:26.400Z,67.12
2023-05-22T19:57:53.177Z,67.60
2023-05-22T20:00:20.931Z,67.96
2023-05-22T20:02:47.464Z,68.14
2023-05-22T20:05:14.302Z,68.52
2023-05-22T20:07:42.408Z,69.29
2023-05-22T20:10:10.137Z,69.93
2023-05-22T20:12:37.168Z,70.20
2023-05-22T20:15:04.008Z,70.23
2023-05-22T20:17:30.485Z,70.23
2023-05-22T20:20:00.423Z,70.12
2023-05-22T20:22:27.660Z,70.00
2023-05-22T20:24:54.297Z,70.23
2023-05-22T20:27:21.019Z,69.37
2023-05-22T20:29:49.872Z,69.61
2023-05-22T20:32:16.919Z,69.45
2023-05-22T20:34:45.121Z,69.80
2023-05-22T20:37:13.474Z,69.79
2023-05-22T20:39:41.746Z,69.67
2023-05-22T20:42:09.279Z,70.16
2023-05-22T20:44:35.762Z,70.28
2023-05-22T20:47:03.186Z,70.78
2023-05-22T20:49:29.895Z,70.78
2023-05-22T20:51:59.829Z,70.43
2023-05-22T20:54:26.336Z,70.51
2023-05-22T20:56:54.650Z,70.73
2023-05-22T20:59:22.022Z,71.01
2023-05-22T21:01:48.482Z,70.80
2023-05-22T21:04:14.998Z,70.67
2023-05-22T21:06:41.517Z,71.02
2023-05-22T21:09:07.977Z,71.75
2023-05-22T21:11:34.468Z,72.32
2023-05-22T21:14:00.966Z,72.18
2023-05-22T21:16:27.469Z,72.36
2023-05-22T21:18:54.042Z,71.82
2023-05-22T21:21:20.532Z,71.13
2023-05-22T21:23:48.018Z,71.50
2023-05-22T21:26:14.820Z,71.59
2023-05-22T21:28:42.918Z,71.98
2023-05-22T21:31:09.503Z,72.67
2023-05-22T21:33:36.258Z,72.39
2023-05-22T21:36:02.901Z,72.96
2023-05-22T21:38:29.409Z,73.56
2023-05-22T21:40:55.961Z,74.40
2023-05-22T21:43:22.493Z,73.76
2023-05-22T21:45:49.087Z,74.45
2023-05-22T21:48:15.976Z,74.54
2023-05-22T21:50:42.445Z,74.54
2023-05-22T21:53:08.924Z,73.61
2023-05-22T21:55:36.034Z,73.86
2023-05-22T21:58:02.532Z,74.20
2023-05-22T22:00:29.535Z,74.26
2023-05-22T22:02:57.363Z,74.35
2023-05-22T22:05:25.933Z,73.71
2023-05-22T22:07:52.449Z,75.10
2023-05-22T22:10:19.107Z,75.10
2023-05-22T22:12:45.604Z,75.18
2023-05-22T22:15:12.235Z,75.13
2023-05-22T22:17:40.645Z,74.72
2023-05-22T22:20:08.637Z,75.10
2023-05-22T22:22:35.264Z,75.53
2023-05-22T22:25:01.741Z,75.90
2023-05-22T22:27:28.192Z,75.79
2023-05-22T22:29:54.731Z,75.38
2023-05-22T22:32:21.311Z,75.57
2023-05-22T22:34:49.942Z,75.27
2023-05-22T22:37:17.502Z,75.34
2023-05-22T22:39:43.977Z,74.81
2023-05-22T22:42:10.449Z,75.12
2023-05-22T22:44:36.918Z,74.91
2023-05-22T22:47:04.573Z,75.25
2023-05-22T22:49:31.990Z,75.33
2023-05-22T22:51:59.230Z,75.29
2023-05-22T22:54:25.737Z,74.85
2023-05-22T22:56:52.290Z,74.50
2023-05-22T22:59:18.758Z,74.57
2023-05-22T23:01:45.406Z,75.23
2023-05-22T23:04:12.929Z,75.46
2023-05-22T23:06:42.603Z,75.63
2023-05-22T23:09:10.905Z,75.83
2023-05-22T23:11:38.333Z,76.47
2023-05-22T23:14:07.551Z,76.43
2023-05-22T23:16:38.349Z,76.40
2023-05-22T23:19:05.639Z,76.17
2023-05-22T23:21:33.156Z,76.44
2023-05-22T23:24:00.720Z,77.24
2023-05-22T23:26:31.329Z,76.94
2023-05-22T23:29:01.087Z,76.82
2023-05-22T23:31:30.281Z,76.60
2023-05-22T23:33:57.498Z,76.78
2023-05-22T23:36:24.586Z,76.84
2023-05-22T23:38:51.024Z,75.35
2023-05-22T23:41:18.545Z,75.22
2023-05-22T23:43:45.785Z,74.93
2023-05-22T23:46:15.722Z,75.14
2023-05-22T23:48:42.595Z,74.75
2023-05-22T23:51:09.888Z,73.98
2023-05-22T23:53:36.575Z,74.91
2023-05-22T23:56:04.249Z,74.64
2023-05-22T23:58:31.938Z,74.50
